Latest Weather Observations for Condobolin Airport

IDN60801

Issued at 11:32 am EST Thursday 28 May 2015 (issued every 30 minutes, with the page automatically refreshed every 10 minutes)

About weather observations | Map of weather stations | Latest weather observations for NSW | Other Formats
Station Details ID: 050137 Name: CONDOBOLIN AIRPORT AWS Lat: -33.07 Lon: 147.21 Height: 192.6 m
Data from the previous 72 hours. | See also: Recent months at Condobolin Airport
Date/Time
EST
Temp
°C
App
Temp
°C
Dew
Point
Rel
Hum
%
Delta-T
°C
Wind Press
QNH
hPa
Press
MSL
hPa
Rain
since 9 am
mm
Dir
 
Spd
km/h
Gust
km/h
Spd
kts
Gust
kts
28/11:30am 19.1 16.6 13.5 70 3.2 N 19 24 10 13 1022.8 1022.8 0.0
28/11:00am 19.0 16.8 13.4 70 3.2 NNW 17 24 9 13 1023.1 1023.1 0.0
28/10:30am 18.8 17.0 14.5 76 2.5 N 17 24 9 13 1023.5 1023.5 0.0
28/10:00am 16.4 13.5 12.9 80 2.0 N 20 24 11 13 1023.5 1023.5 0.0
28/09:30am 16.0 13.9 13.7 86 1.3 N 17 20 9 11 1023.8 1023.9 0.0
28/09:00am 14.7 11.4 12.9 89 1.0 N 22 28 12 15 1023.5 1023.5 0.0
28/08:30am 14.2 11.6 13.1 93 0.6 N 19 24 10 13 1023.2 1023.2 0.0
28/08:00am 14.2 12.0 13.4 95 0.4 N 17 20 9 11 1022.8 1022.8 0.0
28/07:30am 13.1 10.7 12.8 98 0.2 NNE 17 20 9 11 1022.2 1022.2 0.0
28/07:00am 13.0 10.2 12.5 97 0.3 N 19 24 10 13 1022.3 1022.3 0.0
28/06:30am 13.1 10.2 12.3 95 0.4 N 19 20 10 11 1022.3 1022.3 0.0
28/06:00am 13.5 10.7 12.7 95 0.4 N 19 22 10 12 1021.7 1021.7 0.0
28/05:30am 13.0 13.0 12.5 97 0.3 NE 4 9 2 5 1021.8 1021.8 0.0
28/05:00am 12.6 13.3 12.1 97 0.3 CALM 0 0 0 0 1022.0 1022.0 0.0
28/04:30am 11.5 11.8 10.9 96 0.3 CALM 0 0 0 0 1021.7 1021.7 0.0
28/04:00am 11.2 11.3 10.3 94 0.5 CALM 0 0 0 0 1021.8 1021.8 0.0
28/03:30am 11.8 12.1 10.9 94 0.5 CALM 0 0 0 0 1021.8 1021.8 0.0
28/03:00am 13.1 12.3 12.9 99 0.1 NNE 9 13 5 7 1022.1 1022.1 0.0
28/02:30am 11.2 11.4 10.7 97 0.3 CALM 0 0 0 0 1022.2 1022.2 0.0
28/02:00am 10.8 10.9 10.3 97 0.3 CALM 0 0 0 0 1022.5 1022.5 0.0
28/01:30am 10.7 10.8 10.2 97 0.3 CALM 0 0 0 0 1022.1 1022.1 0.0
28/01:00am 10.6 10.7 10.3 98 0.2 CALM 0 2 0 1 1022.4 1022.4 0.0
28/12:30am 10.1 10.0 9.5 96 0.3 CALM 0 0 0 0 1022.6 1022.6 0.0
28/12:00am 9.6 7.6 8.7 94 0.4 ENE 9 11 5 6 1022.6 1022.6 0.0
 
Date/Time
EST
Temp
°C
App
Temp
°C
Dew
Point
Rel
Hum
%
Delta-T
°C
Wind Press
QNH
hPa
Press
MSL
hPa
Rain
since 9 am
mm
Dir
 
Spd
km/h
Gust
km/h
Spd
kts
Gust
kts
27/11:30pm 10.2 9.6 9.1 93 0.6 ENE 2 7 1 4 1023.1 1023.1 0.0
27/11:00pm 11.2 11.3 10.3 94 0.5 CALM 0 0 0 0 1023.1 1023.1 0.0
27/10:30pm 11.2 11.2 9.8 91 0.7 CALM 0 0 0 0 1023.2 1023.2 0.0
27/10:00pm 11.7 11.9 10.4 92 0.7 CALM 0 0 0 0 1023.2 1023.2 0.0
27/09:30pm 11.8 12.0 10.4 91 0.7 CALM 0 0 0 0 1023.2 1023.2 0.0
27/09:00pm 11.7 11.7 9.9 89 0.9 CALM 0 0 0 0 1023.2 1023.2 0.0
27/08:30pm 11.8 11.8 9.9 88 1.0 CALM 0 0 0 0 1023.2 1023.2 0.0
27/08:00pm 12.6 11.7 10.7 88 1.0 N 6 7 3 4 1023.1 1023.1 0.0
27/07:30pm 12.9 13.1 10.4 85 1.3 CALM 0 0 0 0 1023.0 1023.0 0.0
27/07:00pm 14.1 14.1 11.1 82 1.6 NNE 2 7 1 4 1022.8 1022.8 0.0
27/06:30pm 14.7 13.9 10.9 78 2.0 NNE 6 7 3 4 1022.6 1022.6 0.0
27/06:00pm 15.4 14.5 11.4 77 2.2 NE 7 9 4 5 1022.5 1022.5 0.0
27/05:30pm 15.5 14.6 11.3 76 2.3 N 7 9 4 5 1022.4 1022.4 0.0
27/05:00pm 16.0 14.7 11.2 73 2.6 NNW 9 11 5 6 1022.3 1022.3 0.0
27/04:30pm 16.2 14.1 11.2 72 2.7 N 13 17 7 9 1022.2 1022.2 0.0
27/04:00pm 16.8 15.1 11.1 69 3.1 N 11 15 6 8 1022.2 1022.2 0.0
27/03:30pm 17.0 14.5 11.1 68 3.2 N 15 17 8 9 1022.4 1022.4 0.0
27/03:00pm 16.9 15.0 10.5 66 3.4 N 11 15 6 8 1022.5 1022.5 0.0
27/02:30pm 17.0 15.5 10.4 65 3.5 NNW 9 15 5 8 1022.6 1022.6 0.0
27/02:00pm 17.0 14.9 9.9 63 3.8 NNW 11 13 6 7 1022.7 1022.7 0.0
27/01:30pm 17.3 15.6 9.7 61 4.0 NNW 9 11 5 6 1023.0 1023.0 0.0
27/01:00pm 17.1 14.5 9.3 60 4.1 NNW 13 17 7 9 1023.6 1023.6 0.0
27/12:30pm 16.7 14.8 8.9 60 4.1 NNW 9 15 5 8 1024.2 1024.3 0.0
27/12:00pm 16.7 14.1 9.4 62 3.8 NNW 13 19 7 10 1024.4 1024.5 0.0
27/11:30am 16.6 14.0 9.5 63 3.7 N 13 17 7 9 1025.1 1025.1 0.0
27/11:00am 15.4 12.7 9.1 66 3.2 N 13 15 7 8 1025.3 1025.3 0.0
27/10:30am 14.5 14.0 9.3 71 2.7 NE 2 7 1 4 1025.7 1025.7 0.0
27/10:00am 14.0 12.7 9.2 73 2.5 E 6 7 3 4 1025.7 1025.7 0.0
27/09:30am 13.8 13.2 9.0 73 2.5 ESE 2 6 1 3 1025.6 1025.6 0.0
27/09:00am 12.8 12.6 9.1 78 1.9 CALM 0 0 0 0 1025.5 1025.5 0.0
27/08:30am 12.6 11.3 9.1 79 1.8 NE 6 7 3 4 1025.0 1025.0 0.0
27/08:00am 11.9 10.5 8.9 82 1.5 ESE 6 9 3 5 1024.6 1024.7 0.0
27/07:30am 11.7 10.2 8.6 81 1.6 ENE 6 7 3 4 1024.3 1024.4 0.0
27/07:00am 12.3 11.5 8.2 76 2.0 ENE 2 9 1 5 1024.3 1024.4 0.0
27/06:30am 11.5 10.8 8.7 83 1.4 ESE 2 7 1 4 1024.0 1024.1 0.0
27/06:00am 11.3 11.1 8.9 85 1.2 CALM 0 6 0 3 1023.9 1024.0 0.0
27/05:30am 10.6 9.2 8.7 88 0.9 ENE 6 7 3 4 1023.6 1023.6 0.0
27/05:00am 10.8 10.6 8.9 88 0.9 CALM 0 2 0 1 1023.5 1023.5 0.0
27/04:30am 10.9 9.4 9.0 88 1.0 ENE 7 9 4 5 1023.5 1023.5 0.0
27/04:00am 10.8 9.4 9.4 91 0.7 E 7 9 4 5 1023.6 1023.6 0.0
27/03:30am 10.6 10.1 9.2 91 0.7 SE 2 7 1 4 1023.9 1024.0 0.0
27/03:00am 10.5 8.9 8.8 89 0.8 NE 7 9 4 5 1024.4 1024.5 0.0
27/02:30am 11.2 9.8 9.5 89 0.9 E 7 9 4 5 1024.5 1024.6 0.0
27/02:00am 10.9 10.0 9.2 89 0.9 ENE 4 7 2 4 1024.7 1024.8 0.0
27/01:30am 10.9 9.4 9.2 89 0.9 ENE 7 9 4 5 1025.0 1025.0 0.0
27/01:00am 11.1 9.6 9.0 87 1.0 E 7 9 4 5 1025.0 1025.0 0.0
27/12:30am 11.5 11.2 8.7 83 1.4 CALM 0 0 0 0 1025.3 1025.3 0.0
27/12:00am 12.6 11.1 9.2 80 1.7 NE 7 11 4 6 1025.5 1025.5 0.0
 
Date/Time
EST
Temp
°C
App
Temp
°C
Dew
Point
Rel
Hum
%
Delta-T
°C
Wind Press
QNH
hPa
Press
MSL
hPa
Rain
since 9 am
mm
Dir
 
Spd
km/h
Gust
km/h
Spd
kts
Gust
kts
26/11:30pm 12.7 10.9 9.3 80 1.7 NNE 9 11 5 6 1025.5 1025.5 0.0
26/11:00pm 12.4 9.8 9.4 82 1.5 NNE 13 13 7 7 1025.8 1025.8 0.0
26/10:30pm 11.9 10.5 9.6 86 1.2 N 7 9 4 5 1026.1 1026.1 0.0
26/10:00pm 11.8 10.6 9.4 85 1.2 NE 6 7 3 4 1026.0 1026.0 0.0
26/09:30pm 12.0 11.9 9.4 84 1.3 CALM 0 0 0 0 1026.3 1026.3 0.0
26/09:00pm 11.8 11.2 8.8 82 1.5 E 2 7 1 4 1026.4 1026.4 0.0
26/08:30pm 12.9 12.7 9.2 78 1.9 CALM 0 0 0 0 1026.1 1026.1 0.0
26/08:00pm 13.1 11.3 9.4 78 1.9 E 9 13 5 7 1025.8 1025.8 0.0
26/07:30pm 12.9 10.7 9.4 79 1.8 E 11 15 6 8 1025.9 1025.9 0.0
26/07:00pm 13.1 11.2 9.2 77 2.0 ENE 9 11 5 6 1026.1 1026.1 0.0
26/06:30pm 13.6 11.7 9.1 74 2.3 SE 9 11 5 6 1026.2 1026.2 0.0
26/06:00pm 13.6 11.7 8.9 73 2.4 ENE 9 11 5 6 1026.1 1026.1 0.0
26/05:30pm 14.0 12.0 8.6 70 2.7 ENE 9 11 5 6 1025.7 1025.7 0.0
26/05:00pm 15.0 13.8 9.4 69 2.9 SE 6 7 3 4 1025.8 1025.8 0.0
26/04:30pm 15.6 14.4 9.7 68 3.1 SSE 6 7 3 4 1026.1 1026.1 0.0
26/04:00pm 16.2 15.0 9.6 65 3.5 SSE 6 7 3 4 1026.1 1026.1 0.0
26/03:30pm 16.9 16.3 8.8 59 4.2 ESE 2 7 1 4 1026.1 1026.1 0.0
26/03:00pm 16.9 15.6 9.1 60 4.1 ESE 6 9 3 5 1026.1 1026.1 0.0
26/02:30pm 17.0 15.1 8.9 59 4.2 ESE 9 11 5 6 1026.2 1026.2 0.0
26/02:00pm 16.8 15.4 9.0 60 4.0 ESE 6 9 3 5 1026.6 1026.6 0.0
26/01:30pm 16.5 15.0 9.0 61 3.9 E 7 11 4 6 1026.8 1026.8 0.0
26/01:00pm 16.0 14.5 9.2 64 3.5 ESE 7 11 4 6 1027.2 1027.2 0.0
26/12:30pm 14.7 13.2 9.1 69 2.9 ESE 7 11 4 6 1027.7 1027.7 0.0
26/12:00pm 13.7 11.7 8.7 72 2.5 E 9 11 5 6 1028.3 1028.4 0.0
26/11:30am 12.8 12.1 8.7 76 2.1 ESE 2 7 1 4 1029.0 1029.1 0.0
26/11:00am 12.1 11.4 8.6 79 1.7 ESE 2 7 1 4 1029.5 1029.6 0.0
26/10:30am 11.4 10.0 8.8 84 1.3 E 6 9 3 5 1029.6 1029.7 0.0
26/10:00am 9.9 8.2 8.3 90 0.8 E 7 9 4 5 1029.7 1029.8 0.0
26/09:30am 8.9 7.2 8.3 96 0.3 ESE 7 11 4 6 1029.9 1030.0 0.0
26/09:00am 8.2 7.4 8.1 99 0.0 ESE 2 7 1 4 1030.2 1030.3 0.0
26/08:30am 7.6 7.0 7.5 99 0.0 CALM 0 0 0 0 1030.0 1030.1 0.0
26/08:00am 6.9 6.2 6.8 99 0.0 CALM 0 0 0 0 1029.8 1029.9 0.0
26/07:30am 5.4 4.3 5.3 99 0.0 CALM 0 0 0 0 1029.4 1029.5 0.0
26/07:00am 5.7 4.7 5.6 99 0.0 CALM 0 0 0 0 1029.3 1029.4 0.0
26/06:30am 6.2 5.3 6.1 99 0.0 CALM 0 0 0 0 1028.7 1028.8 0.0
26/06:00am 5.6 4.6 5.5 99 0.0 CALM 0 0 0 0 1028.3 1028.4 0.0
26/05:30am 4.7 3.4 4.3 97 0.2 CALM 0 0 0 0 1028.2 1028.3 0.0
26/05:00am 4.4 3.0 3.8 96 0.3 CALM 0 0 0 0 1028.1 1028.2 0.0
26/04:30am 4.4 3.0 3.4 93 0.4 CALM 0 0 0 0 1028.3 1028.4 0.0
26/04:00am 5.8 4.8 5.4 97 0.2 CALM 0 0 0 0 1028.1 1028.2 0.0
26/03:30am 5.8 4.7 5.1 95 0.3 CALM 0 0 0 0 1028.5 1028.6 0.0
26/03:00am 6.3 5.3 5.4 94 0.4 CALM 0 0 0 0 1028.6 1028.7 0.0
26/02:30am 6.8 5.9 6.1 95 0.3 CALM 0 0 0 0 1029.1 1029.2 0.0
26/02:00am 6.5 5.5 5.6 94 0.4 CALM 0 0 0 0 1029.1 1029.2 0.0
26/01:30am 6.9 6.0 6.2 95 0.3 CALM 0 0 0 0 1029.1 1029.2 0.0
26/01:00am 6.7 5.7 5.7 93 0.4 CALM 0 0 0 0 1029.2 1029.3 0.0
26/12:30am 7.4 6.6 6.3 93 0.5 CALM 0 0 0 0 1029.5 1029.6 0.0
26/12:00am 7.5 6.6 6.1 91 0.6 CALM 0 0 0 0 1029.4 1029.5 0.0
 
Date/Time
EST
Temp
°C
App
Temp
°C
Dew
Point
Rel
Hum
%
Delta-T
°C
Wind Press
QNH
hPa
Press
MSL
hPa
Rain
since 9 am
mm
Dir
 
Spd
km/h
Gust
km/h
Spd
kts
Gust
kts
25/11:30pm 8.3 7.6 6.9 91 0.7 CALM 0 0 0 0 1029.8 1029.9 0.0
25/11:00pm 8.3 7.5 6.6 89 0.8 CALM 0 0 0 0 1029.9 1030.0 0.0
25/10:30pm 8.8 8.1 6.9 88 0.9 CALM 0 0 0 0 1029.9 1030.0 0.0
25/10:00pm 8.9 8.2 7.0 88 0.9 CALM 0 0 0 0 1030.0 1030.1 0.0
25/09:30pm 9.1 8.4 7.1 87 0.9 CALM 0 0 0 0 1030.0 1030.1 0.0
25/09:00pm 9.3 7.8 6.9 85 1.1 ENE 4 7 2 4 1030.0 1030.1 0.0
25/08:30pm 9.6 7.6 7.2 85 1.1 E 7 9 4 5 1029.6 1029.7 0.0
25/08:00pm 10.0 8.6 7.4 84 1.2 E 4 7 2 4 1029.5 1029.6 0.0
25/07:30pm 9.2 7.6 6.5 83 1.3 ENE 4 7 2 4 1029.6 1029.7 0.0
25/07:00pm 10.1 9.4 6.8 80 1.6 CALM 0 0 0 0 1029.5 1029.6 0.0
25/06:30pm 11.0 9.5 6.6 74 2.1 SE 4 6 2 3 1029.5 1029.6 0.0
25/06:00pm 12.6 10.8 7.1 69 2.7 SE 6 7 3 4 1029.4 1029.5 0.0
25/05:30pm 14.3 12.6 7.6 64 3.3 SE 6 7 3 4 1029.2 1029.3 0.0
25/05:00pm 15.5 13.7 8.0 61 3.8 SE 7 7 4 4 1028.9 1029.0 0.0
25/04:30pm 16.3 14.1 7.8 57 4.3 SSE 9 11 5 6 1028.7 1028.8 0.0
25/04:00pm 17.2 14.8 7.0 51 5.1 SSE 9 11 5 6 1028.2 1028.3 0.0
25/03:30pm 17.5 15.0 6.7 49 5.4 S 9 13 5 7 1028.6 1028.7 0.0
25/03:00pm 17.6 14.8 7.1 50 5.3 SSW 11 15 6 8 1028.6 1028.7 0.0
25/02:30pm 17.7 15.3 7.2 50 5.3 SSW 9 13 5 7 1029.0 1029.1 0.0
25/02:00pm 17.8 14.9 6.3 47 5.7 W 11 17 6 9 1029.3 1029.4 0.0
25/01:30pm 18.4 16.0 6.9 47 5.8 WNW 9 17 5 9 1029.7 1029.8 0.0
25/01:00pm 18.5 15.8 7.3 48 5.7 WNW 11 15 6 8 1029.9 1030.0 0.0
25/12:30pm 17.3 14.5 6.8 50 5.3 NW 11 17 6 9 1030.4 1030.4 0.0
25/12:00pm 17.7 14.3 5.9 46 5.8 WNW 13 19 7 10 1031.0 1031.0 0.0

Other Formats:

Comma delimited format used in spreadsheet applications
http://www.bom.gov.au/fwo/IDN60801/IDN60801.95708.axf

JavaScript Object Notation format (JSON) in row-major order
http://www.bom.gov.au/fwo/IDN60801/IDN60801.95708.json